Sacramento, California
Traffic Map
Current Weather Conditions
Sacramento, California
Clear
Clear
24°
Feels Like: 24°
Wind Chill: 24° Ceiling: Unl
Heat Index: 24° Visibility: 10mi
Dew Point: Wind: 10mph
Humidity: 37% Direction: 210° (SSW)
Pressure: 29.89in Gusts: 16mph
Raw Report DataKSAC 031853Z 21009G14KT 10SM CLR 24/08 A2989 RMK AO2 SLP121 T02390083
Traffic Incident Summary
Active as of:
Severity:
Category:
InformationThere was an issue retrieving the traffic information for this location. Please try a different location or try again shortly.
Advertisements
Track Severe Weather on mobile